createdAt,value
2022-11-16T00:01:53.903Z,12.00
2022-11-16T00:04:39.943Z,12.00
2022-11-16T00:07:25.283Z,12.10
2022-11-16T00:10:11.513Z,12.10
2022-11-16T00:12:57.239Z,12.10
2022-11-16T00:15:42.610Z,12.10
2022-11-16T00:18:28.876Z,12.10
2022-11-16T00:21:14.690Z,12.10
2022-11-16T00:24:01.050Z,12.10
2022-11-16T00:26:47.596Z,12.00
2022-11-16T00:29:33.456Z,12.00
2022-11-16T00:32:19.084Z,12.00
2022-11-16T00:35:06.652Z,12.00
2022-11-16T00:37:52.916Z,12.00
2022-11-16T00:40:40.755Z,12.00
2022-11-16T00:43:31.178Z,12.00
2022-11-16T00:46:16.989Z,12.00
2022-11-16T00:49:03.121Z,12.00
2022-11-16T00:51:49.032Z,12.00
2022-11-16T00:54:34.135Z,12.00
2022-11-16T00:57:19.552Z,12.10
2022-11-16T01:00:05.599Z,12.10
2022-11-16T01:02:54.521Z,12.10
2022-11-16T01:05:41.143Z,12.10
2022-11-16T01:08:26.549Z,12.10
2022-11-16T01:11:34.330Z,12.00
2022-11-16T01:14:19.706Z,12.10
2022-11-16T01:17:05.476Z,12.10
2022-11-16T01:19:51.146Z,12.10
2022-11-16T01:22:37.740Z,12.10
2022-11-16T01:25:24.008Z,12.20
2022-11-16T01:28:09.276Z,12.30
2022-11-16T01:31:05.039Z,12.40
2022-11-16T01:33:55.912Z,12.30
2022-11-16T01:36:46.587Z,12.20
2022-11-16T01:39:33.352Z,12.20
2022-11-16T01:42:30.531Z,12.20
2022-11-16T01:45:44.019Z,12.20
2022-11-16T01:48:32.361Z,12.30
2022-11-16T01:51:18.478Z,12.40
2022-11-16T01:54:07.800Z,12.50
2022-11-16T01:56:57.012Z,12.50
2022-11-16T01:59:59.755Z,12.60
2022-11-16T02:02:59.117Z,12.60
2022-11-16T02:06:21.063Z,12.70
2022-11-16T02:10:00.360Z,12.60
2022-11-16T02:13:11.842Z,12.60
2022-11-16T02:16:20.954Z,12.60
2022-11-16T02:19:16.697Z,12.70
2022-11-16T02:22:27.245Z,12.70
2022-11-16T02:25:30.034Z,12.70
2022-11-16T02:28:32.193Z,12.70
2022-11-16T02:31:24.301Z,12.70
2022-11-16T02:34:12.431Z,12.60
2022-11-16T02:37:01.210Z,12.60
2022-11-16T02:39:52.911Z,12.50
2022-11-16T02:43:10.440Z,12.40
2022-11-16T02:46:00.297Z,12.40
2022-11-16T02:48:52.117Z,12.40
2022-11-16T02:51:40.023Z,12.30
2022-11-16T02:54:26.172Z,12.40
2022-11-16T02:57:29.029Z,12.40
2022-11-16T03:00:31.866Z,12.30
2022-11-16T03:03:41.549Z,12.30
2022-11-16T03:06:31.957Z,12.30
2022-11-16T03:09:37.785Z,12.30
2022-11-16T03:12:28.870Z,12.40
2022-11-16T03:15:14.468Z,12.30
2022-11-16T03:18:00.633Z,12.20
2022-11-16T03:20:48.142Z,12.10
2022-11-16T03:23:33.898Z,12.20
2022-11-16T03:26:23.368Z,12.30
2022-11-16T03:29:31.508Z,12.20
2022-11-16T03:32:56.629Z,12.00
2022-11-16T03:35:47.387Z,12.00
2022-11-16T03:38:36.769Z,11.90
2022-11-16T03:41:25.166Z,12.00
2022-11-16T03:44:14.880Z,12.00
2022-11-16T03:47:01.938Z,11.90
2022-11-16T03:49:48.049Z,12.00
2022-11-16T03:52:36.995Z,12.10
2022-11-16T03:55:22.703Z,12.00
2022-11-16T03:58:08.663Z,12.00
2022-11-16T04:00:54.768Z,12.10
2022-11-16T04:03:41.360Z,12.10
2022-11-16T04:06:47.840Z,12.10
2022-11-16T04:09:51.905Z,12.10
2022-11-16T04:13:02.527Z,12.00
2022-11-16T04:16:06.847Z,12.10
2022-11-16T04:19:10.857Z,12.00
2022-11-16T04:22:21.484Z,11.80
2022-11-16T04:25:19.256Z,11.90
2022-11-16T04:28:14.215Z,11.90
2022-11-16T04:31:23.539Z,12.00
2022-11-16T04:34:41.351Z,12.00
2022-11-16T04:37:45.288Z,12.00
2022-11-16T04:40:31.874Z,11.80
2022-11-16T04:43:18.091Z,11.90
2022-11-16T04:46:23.870Z,11.90
2022-11-16T04:49:10.158Z,11.90
2022-11-16T04:51:57.163Z,11.90
2022-11-16T04:54:44.089Z,11.90
2022-11-16T04:57:30.252Z,12.00
2022-11-16T05:00:17.528Z,11.90
2022-11-16T05:03:05.192Z,11.90
2022-11-16T05:05:53.618Z,11.80
2022-11-16T05:08:40.718Z,11.80
2022-11-16T05:11:26.644Z,11.80
2022-11-16T05:14:13.215Z,11.80
2022-11-16T05:17:01.198Z,11.90
2022-11-16T05:20:08.097Z,11.90
2022-11-16T05:23:01.084Z,11.90
2022-11-16T05:25:50.228Z,12.00
2022-11-16T05:28:36.811Z,12.00
2022-11-16T05:31:22.646Z,12.00
2022-11-16T05:34:10.521Z,11.90
2022-11-16T05:36:57.185Z,11.80
2022-11-16T05:39:44.478Z,11.80
2022-11-16T05:42:30.415Z,11.80
2022-11-16T05:45:20.840Z,11.80
2022-11-16T05:48:07.084Z,11.80
2022-11-16T05:50:58.598Z,11.80
2022-11-16T05:53:50.341Z,11.80
2022-11-16T05:56:40.689Z,11.90
2022-11-16T05:59:29.548Z,11.90
2022-11-16T06:02:17.635Z,11.90
2022-11-16T06:05:03.332Z,11.80
2022-11-16T06:07:49.282Z,11.70
2022-11-16T06:10:35.381Z,11.70
2022-11-16T06:13:21.483Z,11.70
2022-11-16T06:16:12.084Z,11.70
2022-11-16T06:19:00.441Z,11.70
2022-11-16T06:21:46.615Z,11.80
2022-11-16T06:24:37.577Z,11.80
2022-11-16T06:27:23.175Z,11.80
2022-11-16T06:30:10.073Z,11.80
2022-11-16T06:32:57.833Z,11.80
2022-11-16T06:35:44.883Z,11.90
2022-11-16T06:38:33.818Z,11.90
2022-11-16T06:41:21.040Z,11.90
2022-11-16T06:44:08.834Z,11.80
2022-11-16T06:46:57.126Z,11.90
2022-11-16T06:49:43.991Z,11.90
2022-11-16T06:52:37.044Z,11.90
2022-11-16T06:55:23.120Z,11.80
2022-11-16T06:58:09.502Z,11.80
2022-11-16T07:00:54.961Z,11.80
2022-11-16T07:03:42.426Z,11.70
2022-11-16T07:06:29.777Z,11.70
2022-11-16T07:09:16.045Z,11.70
2022-11-16T07:12:02.523Z,11.70
2022-11-16T07:14:53.532Z,11.70
2022-11-16T07:17:41.260Z,11.70
2022-11-16T07:20:27.522Z,11.80
2022-11-16T07:23:14.360Z,11.80
2022-11-16T07:26:06.465Z,11.80
2022-11-16T07:29:02.044Z,11.80
2022-11-16T07:31:48.599Z,11.80
2022-11-16T07:34:46.248Z,11.70
2022-11-16T07:37:35.232Z,11.70
2022-11-16T07:40:21.507Z,11.60
2022-11-16T07:43:07.739Z,11.70
2022-11-16T07:49:27.617Z,11.60
2022-11-16T07:52:16.580Z,11.60
2022-11-16T07:55:25.598Z,11.60
2022-11-16T07:58:11.892Z,11.50
2022-11-16T08:01:25.296Z,11.50
2022-11-16T08:04:10.965Z,11.60
2022-11-16T08:06:58.333Z,11.60
2022-11-16T08:09:46.219Z,11.60
2022-11-16T08:12:33.670Z,11.70
2022-11-16T08:15:19.839Z,11.70
2022-11-16T08:18:05.415Z,11.80
2022-11-16T08:20:51.423Z,12.00
2022-11-16T08:23:37.640Z,12.00
2022-11-16T08:26:24.092Z,12.00
2022-11-16T08:29:18.309Z,12.00
2022-11-16T08:32:09.047Z,12.20
2022-11-16T08:34:54.853Z,12.30
2022-11-16T08:37:43.752Z,12.40
2022-11-16T08:40:35.382Z,12.50
2022-11-16T08:43:24.754Z,12.60
2022-11-16T08:46:12.342Z,12.70
2022-11-16T08:48:59.502Z,12.60
2022-11-16T08:51:46.206Z,12.70
2022-11-16T08:54:35.301Z,12.70
2022-11-16T08:57:27.039Z,12.70
2022-11-16T09:00:17.738Z,12.90
2022-11-16T09:03:03.869Z,12.90
2022-11-16T09:05:50.252Z,13.00
2022-11-16T09:08:39.090Z,13.00
2022-11-16T09:11:26.123Z,12.90
2022-11-16T09:14:13.079Z,12.80
2022-11-16T09:16:58.589Z,13.20
2022-11-16T09:19:44.022Z,13.30
2022-11-16T09:22:29.605Z,13.30
2022-11-16T09:25:15.188Z,13.50
2022-11-16T09:28:00.714Z,13.80
2022-11-16T09:30:48.070Z,14.10
2022-11-16T09:33:34.493Z,14.50
2022-11-16T09:36:21.304Z,14.70
2022-11-16T09:39:29.432Z,14.70
2022-11-16T09:42:48.428Z,14.60
2022-11-16T09:45:41.827Z,14.30
2022-11-16T09:48:28.117Z,14.30
2022-11-16T09:51:16.873Z,14.20
2022-11-16T09:54:07.543Z,14.00
2022-11-16T09:56:57.940Z,14.10
2022-11-16T09:59:49.949Z,14.20
2022-11-16T10:02:43.386Z,14.30
2022-11-16T10:06:06.136Z,14.30
2022-11-16T10:08:56.585Z,14.30
2022-11-16T10:11:51.432Z,14.30
2022-11-16T10:14:39.891Z,14.30
2022-11-16T10:17:43.890Z,14.50
2022-11-16T10:20:32.502Z,14.30
2022-11-16T10:23:32.028Z,14.20
2022-11-16T10:26:40.193Z,14.10
2022-11-16T10:29:28.651Z,14.10
2022-11-16T10:32:28.916Z,14.10
2022-11-16T10:35:16.776Z,14.00
2022-11-16T10:38:11.440Z,13.80
2022-11-16T10:41:21.694Z,14.00
2022-11-16T10:44:32.633Z,14.20
2022-11-16T10:47:30.895Z,14.30
2022-11-16T10:50:32.388Z,14.70
2022-11-16T10:53:42.430Z,15.00
2022-11-16T10:56:37.392Z,15.30
2022-11-16T10:59:38.633Z,15.60
2022-11-16T11:02:35.439Z,15.90
2022-11-16T11:05:21.713Z,16.00
2022-11-16T11:08:11.401Z,16.40
2022-11-16T11:11:25.503Z,16.60
2022-11-16T11:14:14.624Z,16.50
2022-11-16T11:17:12.120Z,16.20
2022-11-16T11:19:59.476Z,16.50
2022-11-16T11:22:55.397Z,16.30
2022-11-16T11:25:58.361Z,16.60
2022-11-16T11:28:49.550Z,16.80
2022-11-16T11:31:42.655Z,17.50
2022-11-16T11:34:31.746Z,18.00
2022-11-16T11:37:21.624Z,17.90
2022-11-16T11:40:10.181Z,18.00
2022-11-16T11:42:59.557Z,18.60
2022-11-16T11:46:04.049Z,18.90
2022-11-16T11:49:03.519Z,20.10
2022-11-16T11:51:49.998Z,21.20
2022-11-16T11:54:45.669Z,21.90
2022-11-16T11:57:35.104Z,21.30
2022-11-16T12:00:21.066Z,21.00
2022-11-16T12:03:26.741Z,19.90
2022-11-16T12:06:19.384Z,18.40
2022-11-16T12:09:49.732Z,17.40
2022-11-16T12:12:40.079Z,17.20
2022-11-16T12:15:46.977Z,16.90
2022-11-16T12:19:11.423Z,16.60
2022-11-16T12:22:33.874Z,16.50
2022-11-16T12:25:49.726Z,16.20
2022-11-16T12:28:56.807Z,17.50
2022-11-16T12:32:12.403Z,20.70
2022-11-16T12:35:16.008Z,21.70
2022-11-16T12:38:20.531Z,22.70
2022-11-16T12:41:24.592Z,21.80
2022-11-16T12:44:21.873Z,20.50
2022-11-16T12:47:17.922Z,20.50
2022-11-16T12:50:15.858Z,21.00
2022-11-16T12:53:28.617Z,20.90
2022-11-16T12:56:44.602Z,20.50
2022-11-16T12:59:34.006Z,20.20
2022-11-16T13:02:37.753Z,20.20
2022-11-16T13:05:42.847Z,20.60
2022-11-16T13:08:48.214Z,20.40
2022-11-16T13:11:45.701Z,20.20
2022-11-16T13:14:39.866Z,21.10
2022-11-16T13:17:37.081Z,22.10
2022-11-16T13:20:47.478Z,22.00
2022-11-16T13:24:21.511Z,21.30
2022-11-16T13:27:43.564Z,20.50
2022-11-16T13:30:41.262Z,20.80
2022-11-16T13:33:30.083Z,19.90
2022-11-16T13:36:43.436Z,19.60
2022-11-16T13:40:08.592Z,19.10
2022-11-16T13:43:05.934Z,18.80
2022-11-16T13:45:51.539Z,18.70
2022-11-16T13:48:38.522Z,18.20
2022-11-16T13:51:24.717Z,18.00
2022-11-16T13:57:24.538Z,17.40
2022-11-16T14:00:19.943Z,17.30
2022-11-16T14:03:17.955Z,17.00
2022-11-16T14:06:04.007Z,16.80
2022-11-16T14:08:51.744Z,16.80
2022-11-16T14:11:39.480Z,17.00
2022-11-16T14:15:03.978Z,17.10
2022-11-16T14:17:58.699Z,16.80
2022-11-16T14:20:57.822Z,16.60
2022-11-16T14:24:18.785Z,16.60
2022-11-16T14:27:13.239Z,16.60
2022-11-16T14:30:29.533Z,16.60
2022-11-16T14:33:27.940Z,16.80
2022-11-16T14:36:14.702Z,17.00
2022-11-16T14:39:23.127Z,16.90
2022-11-16T14:42:18.253Z,16.80
2022-11-16T14:45:16.336Z,16.30
2022-11-16T14:48:14.571Z,16.00
2022-11-16T14:51:03.218Z,15.90
2022-11-16T14:53:53.108Z,15.80
2022-11-16T14:56:54.399Z,15.80
2022-11-16T14:59:39.825Z,15.70
2022-11-16T15:02:27.422Z,15.60
2022-11-16T15:05:17.738Z,15.60
2022-11-16T15:08:19.267Z,15.50
2022-11-16T15:11:11.396Z,15.50
2022-11-16T15:13:56.981Z,15.40
2022-11-16T15:16:54.010Z,15.30
2022-11-16T15:19:39.529Z,15.30
2022-11-16T15:22:31.131Z,15.20
2022-11-16T15:25:44.367Z,15.10
2022-11-16T15:28:34.382Z,15.00
2022-11-16T15:31:22.255Z,14.90
2022-11-16T15:34:12.858Z,14.90
2022-11-16T15:36:58.629Z,14.90
2022-11-16T15:39:44.436Z,14.70
2022-11-16T15:42:29.986Z,14.60
2022-11-16T15:45:24.828Z,14.50
2022-11-16T15:48:17.283Z,14.40
2022-11-16T15:51:28.833Z,14.20
2022-11-16T15:54:29.130Z,14.10
2022-11-16T15:57:15.235Z,13.90
2022-11-16T16:00:00.654Z,13.90
2022-11-16T16:02:46.845Z,13.80
2022-11-16T16:05:40.895Z,13.70
2022-11-16T16:08:38.623Z,13.60
2022-11-16T16:11:26.964Z,13.40
2022-11-16T16:14:23.077Z,13.30
2022-11-16T16:17:10.106Z,13.20
2022-11-16T16:20:00.918Z,13.20
2022-11-16T16:22:46.880Z,13.00
2022-11-16T16:25:34.086Z,12.90
2022-11-16T16:28:19.200Z,12.80
2022-11-16T16:31:05.023Z,12.70
2022-11-16T16:33:50.686Z,12.60
2022-11-16T16:36:36.138Z,12.60
2022-11-16T16:39:21.693Z,12.60
2022-11-16T16:42:11.200Z,12.60
2022-11-16T16:44:59.464Z,12.60
2022-11-16T16:47:45.033Z,12.50
2022-11-16T16:50:30.844Z,12.50
2022-11-16T16:53:16.764Z,12.50
2022-11-16T16:56:03.084Z,12.40
2022-11-16T16:58:48.755Z,12.40
2022-11-16T17:01:34.338Z,12.40
2022-11-16T17:04:20.101Z,12.40
2022-11-16T17:07:06.184Z,12.30
2022-11-16T17:09:52.684Z,12.30
2022-11-16T17:12:38.258Z,12.10
2022-11-16T17:15:24.460Z,12.10
2022-11-16T17:18:09.973Z,12.00
2022-11-16T17:20:55.638Z,11.90
2022-11-16T17:23:41.210Z,11.80
2022-11-16T17:26:29.421Z,11.80
2022-11-16T17:29:16.842Z,11.70
2022-11-16T17:32:04.177Z,11.70
2022-11-16T17:34:50.037Z,11.70
2022-11-16T17:37:37.768Z,11.60
2022-11-16T17:40:28.832Z,11.60
2022-11-16T17:43:15.579Z,11.50
2022-11-16T17:46:09.589Z,11.40
2022-11-16T17:48:55.867Z,11.40
2022-11-16T17:51:43.476Z,11.30
2022-11-16T17:54:29.342Z,11.40
2022-11-16T17:57:14.857Z,11.20
2022-11-16T18:00:01.496Z,11.20
2022-11-16T18:02:47.344Z,11.10
2022-11-16T18:05:33.130Z,11.10
2022-11-16T18:08:18.853Z,11.10
2022-11-16T18:11:08.334Z,11.10
2022-11-16T18:13:57.271Z,11.00
2022-11-16T18:16:44.123Z,11.00
2022-11-16T18:19:29.988Z,11.00
2022-11-16T18:22:23.058Z,10.90
2022-11-16T18:25:08.563Z,10.90
2022-11-16T18:27:55.419Z,10.90
2022-11-16T18:30:53.655Z,10.90
2022-11-16T18:33:39.678Z,10.80
2022-11-16T18:36:25.480Z,10.80
2022-11-16T18:39:11.181Z,10.80
2022-11-16T18:41:56.827Z,10.80
2022-11-16T18:44:42.115Z,10.80
2022-11-16T18:47:27.937Z,10.70
2022-11-16T18:50:26.535Z,10.70
2022-11-16T18:53:14.192Z,10.60
2022-11-16T18:56:00.073Z,10.60
2022-11-16T18:58:52.238Z,10.70
2022-11-16T19:01:41.900Z,10.60
2022-11-16T19:04:28.796Z,10.60
2022-11-16T19:07:14.379Z,10.60
2022-11-16T19:10:00.237Z,10.50
2022-11-16T19:12:46.074Z,10.40
2022-11-16T19:15:34.121Z,10.50
2022-11-16T19:18:22.014Z,10.50
2022-11-16T19:21:12.458Z,10.40
2022-11-16T19:23:59.333Z,10.20
2022-11-16T19:26:44.825Z,9.60
2022-11-16T19:29:30.331Z,9.30
2022-11-16T19:32:16.288Z,9.50
2022-11-16T19:35:01.983Z,9.60
2022-11-16T19:37:47.649Z,9.70
2022-11-16T19:40:34.613Z,9.90
2022-11-16T19:43:21.636Z,10.10
2022-11-16T19:46:12.171Z,10.10
2022-11-16T19:48:58.329Z,10.20
2022-11-16T19:51:44.110Z,10.30
2022-11-16T19:54:29.645Z,10.20
2022-11-16T19:57:16.922Z,10.20
2022-11-16T20:00:04.395Z,10.20
2022-11-16T20:02:56.101Z,10.30
2022-11-16T20:05:41.877Z,10.40
2022-11-16T20:08:27.404Z,10.40
2022-11-16T20:11:16.200Z,10.40
2022-11-16T20:14:03.903Z,10.30
2022-11-16T20:16:50.332Z,10.40
2022-11-16T20:19:35.872Z,10.30
2022-11-16T20:22:21.292Z,10.10
2022-11-16T20:25:07.221Z,10.10
2022-11-16T20:27:53.052Z,10.20
2022-11-16T20:30:38.879Z,10.20
2022-11-16T20:33:24.353Z,10.40
2022-11-16T20:36:11.387Z,10.40
2022-11-16T20:38:58.926Z,10.20
2022-11-16T20:41:45.136Z,10.40
2022-11-16T20:44:32.235Z,10.60
2022-11-16T20:47:18.244Z,10.70
2022-11-16T20:50:04.220Z,10.80
2022-11-16T20:52:52.691Z,10.90
2022-11-16T20:55:38.506Z,10.90
2022-11-16T20:58:25.038Z,10.90
2022-11-16T21:01:28.506Z,11.10
2022-11-16T21:04:15.469Z,11.00
2022-11-16T21:07:01.141Z,11.00
2022-11-16T21:10:05.298Z,11.00
2022-11-16T21:13:09.823Z,10.80
2022-11-16T21:16:00.986Z,10.50
2022-11-16T21:18:46.621Z,10.20
2022-11-16T21:21:32.680Z,10.10
2022-11-16T21:24:18.318Z,10.20
2022-11-16T21:27:04.071Z,10.50
2022-11-16T21:29:49.786Z,10.70
2022-11-16T21:32:35.469Z,10.80
2022-11-16T21:35:21.007Z,10.90
2022-11-16T21:38:07.043Z,11.00
2022-11-16T21:40:52.627Z,11.00
2022-11-16T21:43:40.340Z,11.10
2022-11-16T21:46:27.384Z,11.10
2022-11-16T21:49:13.251Z,11.10
2022-11-16T21:51:58.855Z,10.90
2022-11-16T21:54:47.410Z,10.70
2022-11-16T21:57:33.272Z,10.70
2022-11-16T22:00:19.856Z,10.80
2022-11-16T22:03:05.280Z,10.90
2022-11-16T22:06:13.882Z,11.00
2022-11-16T22:09:00.204Z,11.10
2022-11-16T22:11:45.729Z,11.20
2022-11-16T22:14:31.419Z,11.20
2022-11-16T22:17:16.761Z,11.30
2022-11-16T22:20:02.290Z,11.30
2022-11-16T22:22:48.138Z,11.40
2022-11-16T22:25:33.891Z,11.40
2022-11-16T22:28:21.004Z,11.40
2022-11-16T22:31:12.940Z,11.30
2022-11-16T22:33:58.355Z,11.20
2022-11-16T22:36:43.960Z,11.20
2022-11-16T22:39:29.562Z,11.10
2022-11-16T22:42:15.087Z,11.20
2022-11-16T22:45:00.641Z,11.20
2022-11-16T22:47:48.619Z,11.20
2022-11-16T22:50:36.511Z,11.10
2022-11-16T22:53:22.288Z,11.10
2022-11-16T22:56:10.117Z,11.20
2022-11-16T22:58:55.424Z,11.10
2022-11-16T23:01:41.023Z,11.20
2022-11-16T23:04:26.583Z,11.30
2022-11-16T23:07:11.988Z,11.40
2022-11-16T23:09:57.386Z,11.40
2022-11-16T23:13:01.608Z,11.50
2022-11-16T23:15:49.913Z,11.50
2022-11-16T23:18:35.989Z,11.50
2022-11-16T23:21:40.721Z,11.40
2022-11-16T23:24:44.780Z,11.40
2022-11-16T23:27:44.459Z,11.40
2022-11-16T23:30:30.319Z,11.50
2022-11-16T23:33:16.001Z,11.60
2022-11-16T23:36:01.776Z,11.60
2022-11-16T23:38:47.165Z,11.70
2022-11-16T23:41:51.155Z,11.70
2022-11-16T23:44:36.681Z,11.60
2022-11-16T23:47:22.714Z,11.60
2022-11-16T23:50:08.658Z,11.70
2022-11-16T23:52:54.424Z,11.60
2022-11-16T23:55:40.635Z,11.50
2022-11-16T23:58:26.116Z,11.40
